Rowena, Oregon
Current Conditions -  °F | °C
As of 9:53 PM on Sunday 25 Jan 2015 (Local Time) from KDLS Reporting Station
Haze Haze  
Wind Chill: 43°   Ceiling: 600
Heat Index: 46°   Visibility: 6mi
Dew Point: 44°   Wind: 6mph
Humidity: 93%   Direction: 70°ENE
Pressure: 30.15"   Gusts: NA
Location:  45.5517°N, 121.219°W
Report Text: KDLS 260553Z AUTO 07005KT 6SM BR OVC006 08/07 A3015 RMK AO2 SLP209 T00780067 10083 20072 56003
Loading
Personal Weather Stations






























Interactive Weather Map New forecast layout! Learn more

10-Day Weather Forecast

Advertisements
Track Severe Weather on mobile